CheckWX is a tool to help pilots better visualize weather data.  It is not intended as a substitute for an official pre-flight weather briefing.

15:06:41 UTC

ESNK METAR
Kramfors Sollefteå Airport
Kramfors / Sollefteå, Sweden
Current

17 mins ago

ESNK 231450Z 06009KT 010V090 9999 -DZ OVC009 07/04 Q1012 RERA
Observed
May-23 @ 14:50 UTC
Wind
  • 060° at 9 KTS
Visibility
10,000+ meters
Flight Rules
IFR
Conditions
Light Drizzle
Cloud Levels
  • Overcast at 900' AGL
Temperature
C / 45°F
Dewpoint
C / 39°F
Humidity
81%
Altimeter
29.88" Hg
Pressure
1011.92 hPa
Previous

47 mins ago

ESNK 231420Z 06008KT 020V080 9999 OVC010 07/04 Q1013
Observed
May-23 @ 14:20 UTC
Wind
  • 060° at 8 KTS
Visibility
10,000+ meters
Flight Rules
MVFR
Cloud Levels
  • Overcast at 1,000' AGL
Temperature
C / 45°F
Dewpoint
C / 39°F
Humidity
81%
Altimeter
29.91" Hg
Pressure
1012.92 hPa
Previous

1 hour ago

ESNK 231350Z 08008KT 050V110 9999 -DZ OVC010 07/04 Q1013
Observed
May-23 @ 13:50 UTC
Wind
  • 080° at 8 KTS
Visibility
10,000+ meters
Flight Rules
MVFR
Conditions
Light Drizzle
Cloud Levels
  • Overcast at 1,000' AGL
Temperature
C / 45°F
Dewpoint
C / 39°F
Humidity
81%
Altimeter
29.91" Hg
Pressure
1012.92 hPa